La Fargeville, New York
Current Conditions -  °F | °C
As of 6:56 PM on Monday 20 Oct 2014 (Local Time) from KART Reporting Station
Light Rain Light Rain  
Wind Chill: 52°   Ceiling: 4500
Heat Index: 52°   Visibility: 10mi
Dew Point: 39°   Wind: 5mph
Humidity: 61%   Direction: 160°SSE
Pressure: 29.87"   Gusts: NA
Location:  44.2°N, 75.97°W
Report Text: KART 202256Z AUTO 16004KT 10SM -RA BKN045 OVC055 11/04 A2987 RMK AO2 RAB44 SLP116 P0000 T01110039
Loading
Personal Weather Stations






























Interactive Weather Map
Tropical Storm Tracking
New forecast layout! Learn more

10-Day Weather Forecast

Advertisements
Track Severe Weather on mobile